Portada
METAR-TAF:

METAR-TAF

Aeropuertos :

Ottawa, Kansas, Estados Unidos

latitud: 38-32-20N, longitud: 095-15-10W, altitud: 295 m

Observación

El informe se hizo hace 18 minutos, a las 06:55 UTC
Viento 5 kt del sureste
Temperatura 24°C
Humedad 89%
Presión 1013 hPa
Visibilidad: 16.1 km
Cielo despejado

METAR: KOWI 070655Z AUTO 14005KT 10SM CLR 24/22 A2990 RMK AO2 PWINO

Hora: 02:13 (07:13 UTC)


TAF: falta

Observaciones y pronósticos meteorológicos de más de 4000 aeropuertos (mensajes METAR y TAF).

Los puntos amarillos y rojos representan las estaciones disponibles.

Ponga el ratón en el punto deseado para ver el nombre de la estación.

Haga clic para ver las observaciones y los pronósticos meteorológicos.

Para cambiar el mapa : haga clic en los botones verdes con una cruz de color negro para hacer un zoom, en el botón verde con un guión para alejar o en las flechas verdes para mapas adyacentes.


METAR-TAF: